KSMF/SMF METAR and TAF weather

Enter ICAO airport designator
Station Type Date Time Source
KSMF METAR 2023/01/30 09:53 UTC NOAA

KSMF 300953Z 33017G21KT 10SM CLR 04/M07 A2999 RMK AO2 PK WND 34026/0904 SLP156 T00391072


Station Type Date Time Source
KSMF Decoded METAR 2023/01/30 09:53 UTC NOAA

SACRAMENTO INTERNATIONAL AIRPORT, CA, United States (KSMF) 38-42N 121-36W 6M
Jan 30, 2023 - 04:53 AM EST / 2023.01.30 0953 UTC
Wind: from the NNW (330 degrees) at 20 MPH (17 KT) gusting to 24 MPH (21 KT):0
Visibility: 10 mile(s):0
Sky conditions: clear
Temperature: 39.0 F (3.9 C)
Dew Point: 19.0 F (-7.2 C)
Relative Humidity: 44%
Pressure (altimeter): 29.99 in. Hg (1015 hPa)
ob: KSMF 300953Z 33017G21KT 10SM CLR 04/M07 A2999 RMK AO2 PK WND 34026/0904 SLP156 T00391072
cycle: 10

Station Type Date Time Source
KSMF TAF 2023/01/30 06:24 UTC NOAA

TAF KSMF 300523Z 3006/3106 33011KT P6SM SKC
FM300700 33015G29KT P6SM SKC
FM310100 34011KT P6SM SKC

Example: see airport list